createdAt,value
2022-08-10T00:01:52.796Z,2.63
2022-08-10T00:04:22.669Z,2.57
2022-08-10T00:06:53.147Z,2.67
2022-08-10T00:09:22.468Z,2.53
2022-08-10T00:11:49.954Z,3.43
2022-08-10T00:14:17.522Z,3.50
2022-08-10T00:16:45.553Z,3.47
2022-08-10T00:19:12.999Z,2.93
2022-08-10T00:21:44.404Z,3.50
2022-08-10T00:24:11.765Z,2.97
2022-08-10T00:27:58.863Z,2.43
2022-08-10T00:29:26.811Z,2.50
2022-08-10T00:31:58.016Z,3.47
2022-08-10T00:34:27.672Z,3.20
2022-08-10T00:36:55.418Z,3.10
2022-08-10T00:39:23.008Z,3.30
2022-08-10T00:42:06.880Z,3.80
2022-08-10T00:44:39.948Z,3.30
2022-08-10T00:47:15.394Z,3.43
2022-08-10T00:49:57.591Z,3.20
2022-08-10T00:52:27.498Z,3.17
2022-08-10T00:54:55.587Z,3.07
2022-08-10T00:57:23.014Z,2.60
2022-08-10T00:59:57.650Z,3.50
2022-08-10T01:02:29.458Z,3.40
2022-08-10T01:05:01.570Z,2.90
2022-08-10T01:07:56.970Z,3.40
2022-08-10T01:10:32.558Z,3.10
2022-08-10T01:13:15.370Z,3.73
2022-08-10T01:15:55.025Z,3.30
2022-08-10T01:18:39.829Z,3.13
2022-08-10T01:21:53.198Z,3.00
2022-08-10T01:24:42.627Z,2.50
2022-08-10T01:27:27.172Z,3.10
2022-08-10T01:30:04.662Z,2.80
2022-08-10T01:32:53.948Z,3.63
2022-08-10T01:35:53.027Z,3.53
2022-08-10T01:38:41.347Z,3.80
2022-08-10T01:41:27.775Z,3.70
2022-08-10T01:44:16.267Z,2.90
2022-08-10T01:46:51.350Z,2.60
2022-08-10T01:49:25.701Z,2.93
2022-08-10T01:51:56.397Z,3.13
2022-08-10T01:54:29.894Z,3.60
2022-08-10T01:56:59.627Z,2.73
2022-08-10T01:59:33.920Z,2.90
2022-08-10T02:02:08.010Z,2.70
2022-08-10T02:04:39.810Z,2.80
2022-08-10T02:07:11.921Z,3.37
2022-08-10T02:09:45.289Z,4.20
2022-08-10T02:12:19.562Z,3.50
2022-08-10T02:15:01.041Z,4.03
2022-08-10T02:17:58.126Z,3.63
2022-08-10T02:20:36.631Z,3.10
2022-08-10T02:23:11.525Z,3.57
2022-08-10T02:25:43.663Z,4.27
2022-08-10T02:28:27.264Z,3.97
2022-08-10T02:31:11.946Z,3.90
2022-08-10T02:33:57.376Z,4.50
2022-08-10T02:36:29.808Z,4.57
2022-08-10T02:39:01.411Z,4.77
2022-08-10T02:45:00.912Z,4.80
2022-08-10T02:45:20.366Z,4.20
2022-08-10T02:47:51.323Z,5.17
2022-08-10T02:50:27.774Z,4.97
2022-08-10T02:53:09.282Z,4.60
2022-08-10T02:56:02.545Z,4.90
2022-08-10T02:58:39.535Z,4.97
2022-08-10T03:01:14.328Z,4.30
2022-08-10T03:03:53.307Z,4.80
2022-08-10T03:06:24.938Z,4.53
2022-08-10T03:08:54.074Z,3.67
2022-08-10T03:12:36.177Z,3.60
2022-08-10T03:14:18.494Z,3.50
2022-08-10T03:16:47.592Z,3.90
2022-08-10T03:20:33.367Z,3.77
2022-08-10T03:22:05.955Z,3.33
2022-08-10T03:24:34.989Z,3.80
2022-08-10T03:27:04.985Z,3.77
2022-08-10T03:30:23.247Z,4.30
2022-08-10T03:32:23.155Z,3.77
2022-08-10T03:34:51.555Z,3.70
2022-08-10T03:37:19.644Z,3.30
2022-08-10T03:39:47.462Z,3.60
2022-08-10T03:42:16.210Z,3.37
2022-08-10T03:44:49.878Z,2.57
2022-08-10T03:47:21.109Z,3.40
2022-08-10T03:49:50.979Z,3.93
2022-08-10T03:52:19.756Z,3.53
2022-08-10T03:54:47.782Z,3.50
2022-08-10T03:57:15.306Z,3.23
2022-08-10T03:59:42.894Z,2.93
2022-08-10T04:02:44.858Z,3.20
2022-08-10T04:04:58.892Z,3.13
2022-08-10T04:07:26.881Z,3.40
2022-08-10T04:09:56.450Z,3.87
2022-08-10T04:12:26.295Z,4.40
2022-08-10T04:14:54.028Z,4.27
2022-08-10T04:18:04.946Z,4.73
2022-08-10T04:20:19.905Z,4.90
2022-08-10T04:22:50.654Z,4.60
2022-08-10T04:25:18.487Z,4.00
2022-08-10T04:27:46.735Z,4.90
2022-08-10T04:30:14.740Z,4.73
2022-08-10T04:32:44.983Z,3.90
2022-08-10T04:35:17.031Z,4.20
2022-08-10T04:37:47.160Z,3.70
2022-08-10T04:40:28.799Z,4.50
2022-08-10T04:43:07.345Z,4.20
2022-08-10T04:45:50.370Z,4.97
2022-08-10T04:48:40.465Z,4.83
2022-08-10T04:51:19.153Z,4.77
2022-08-10T04:54:03.888Z,4.40
2022-08-10T04:56:37.870Z,5.30
2022-08-10T04:59:10.796Z,5.50
2022-08-10T05:02:30.754Z,5.00
2022-08-10T05:04:34.517Z,6.00
2022-08-10T05:07:16.344Z,5.70
2022-08-10T05:10:01.082Z,5.70
2022-08-10T05:12:38.808Z,6.27
2022-08-10T05:15:12.294Z,7.20
2022-08-10T05:17:41.514Z,6.40
2022-08-10T05:20:29.127Z,6.87
2022-08-10T05:22:57.328Z,6.60
2022-08-10T05:25:25.140Z,6.40
2022-08-10T05:27:54.719Z,5.83
2022-08-10T05:30:23.969Z,6.47
2022-08-10T05:32:57.194Z,6.70
2022-08-10T05:35:55.372Z,5.43
2022-08-10T05:38:17.752Z,6.17
2022-08-10T05:40:47.838Z,6.97
2022-08-10T05:43:18.126Z,7.17
2022-08-10T05:46:18.958Z,8.10
2022-08-10T05:48:54.047Z,7.63
2022-08-10T05:51:23.098Z,7.30
2022-08-10T05:54:03.163Z,7.97
2022-08-10T05:56:55.715Z,7.67
2022-08-10T06:00:32.441Z,8.23
2022-08-10T06:02:31.851Z,8.00
2022-08-10T06:05:10.681Z,8.97
2022-08-10T06:07:41.415Z,7.70
2022-08-10T06:10:12.798Z,8.60
2022-08-10T06:12:54.895Z,8.00
2022-08-10T06:15:51.440Z,7.80
2022-08-10T06:18:15.316Z,8.70
2022-08-10T06:20:43.624Z,8.07
2022-08-10T06:23:12.061Z,8.63
2022-08-10T06:26:11.253Z,8.90
2022-08-10T06:28:31.074Z,8.67
2022-08-10T06:31:00.353Z,8.00
2022-08-10T06:33:31.662Z,7.70
2022-08-10T06:36:00.414Z,8.67
2022-08-10T06:38:31.877Z,9.00
2022-08-10T06:41:04.609Z,6.83
2022-08-10T06:43:33.845Z,7.33
2022-08-10T06:46:06.774Z,7.67
2022-08-10T06:48:40.635Z,6.40
2022-08-10T06:51:15.439Z,6.17
2022-08-10T06:53:54.302Z,5.80
2022-08-10T06:56:37.889Z,5.90
2022-08-10T06:59:33.543Z,5.20
2022-08-10T07:02:07.901Z,6.10
2022-08-10T07:05:02.953Z,5.43
2022-08-10T07:07:34.688Z,4.70
2022-08-10T07:10:02.288Z,4.27
2022-08-10T07:12:31.725Z,4.50
2022-08-10T07:15:00.459Z,3.57
2022-08-10T07:17:30.732Z,3.50
2022-08-10T07:20:00.663Z,3.70
2022-08-10T07:23:08.333Z,4.10
2022-08-10T07:25:24.586Z,3.13
2022-08-10T07:28:00.441Z,3.27
2022-08-10T07:30:41.260Z,3.37
2022-08-10T07:33:10.130Z,3.23
2022-08-10T07:35:42.270Z,2.80
2022-08-10T07:38:18.033Z,3.40
2022-08-10T07:40:48.539Z,3.07
2022-08-10T07:43:18.786Z,2.40
2022-08-10T07:45:49.193Z,2.27
2022-08-10T07:48:27.016Z,2.90
2022-08-10T07:50:59.419Z,2.93
2022-08-10T07:53:40.222Z,2.83
2022-08-10T07:56:25.960Z,2.67
2022-08-10T07:59:06.074Z,2.27
2022-08-10T08:01:40.161Z,2.50
2022-08-10T08:04:11.778Z,2.07
2022-08-10T08:06:42.480Z,2.20
2022-08-10T08:09:11.722Z,2.27
2022-08-10T08:11:46.120Z,2.13
2022-08-10T08:14:15.727Z,2.33
2022-08-10T08:16:47.345Z,2.33
2022-08-10T08:19:26.709Z,2.00
2022-08-10T08:24:05.690Z,2.30
2022-08-10T08:24:44.457Z,2.10
2022-08-10T08:27:16.133Z,1.83
2022-08-10T08:29:46.939Z,1.80
2022-08-10T08:32:24.230Z,1.80
2022-08-10T08:34:58.582Z,1.60
2022-08-10T08:38:31.709Z,1.67
2022-08-10T08:40:27.824Z,2.13
2022-08-10T08:43:18.031Z,1.70
2022-08-10T08:46:28.752Z,1.87
2022-08-10T08:49:41.415Z,1.43
2022-08-10T08:52:38.784Z,1.47
2022-08-10T08:55:52.359Z,1.30
2022-08-10T08:58:33.293Z,1.70
2022-08-10T09:01:23.421Z,1.63
2022-08-10T09:04:19.797Z,1.20
2022-08-10T09:07:39.286Z,1.37
2022-08-10T09:10:26.698Z,1.27
2022-08-10T09:13:04.797Z,1.53
2022-08-10T09:16:00.013Z,1.57
2022-08-10T09:19:03.598Z,1.30
2022-08-10T09:21:59.044Z,1.40
2022-08-10T09:24:41.677Z,1.20
2022-08-10T09:27:24.906Z,1.60
2022-08-10T09:29:57.933Z,1.27
2022-08-10T09:36:15.193Z,1.27
2022-08-10T09:36:19.531Z,1.50
2022-08-10T09:38:47.443Z,0.90
2022-08-10T09:41:27.523Z,1.13
2022-08-10T09:44:10.198Z,1.00
2022-08-10T09:46:57.404Z,1.10
2022-08-10T09:50:04.651Z,1.10
2022-08-10T09:52:39.246Z,1.13
2022-08-10T09:56:17.409Z,0.83
2022-08-10T09:58:34.615Z,1.00
2022-08-10T10:02:02.522Z,0.87
2022-08-10T10:04:56.223Z,0.70
2022-08-10T10:07:27.667Z,0.83
2022-08-10T10:10:33.069Z,0.90
2022-08-10T10:13:11.158Z,1.10
2022-08-10T10:15:57.367Z,1.07
2022-08-10T10:18:47.093Z,0.90
2022-08-10T10:21:59.534Z,1.13
2022-08-10T10:24:47.783Z,1.10
2022-08-10T10:27:26.766Z,1.67
2022-08-10T10:30:12.714Z,1.10
2022-08-10T10:33:08.285Z,1.20
2022-08-10T10:35:54.871Z,0.80
2022-08-10T10:38:26.988Z,0.80
2022-08-10T10:41:26.803Z,0.80
2022-08-10T10:44:38.966Z,0.90
2022-08-10T10:47:18.145Z,1.20
2022-08-10T10:50:13.022Z,1.40
2022-08-10T10:53:02.302Z,1.40
2022-08-10T10:56:14.670Z,1.05
2022-08-10T10:59:15.424Z,0.90
2022-08-10T11:02:29.339Z,0.90
2022-08-10T11:05:13.793Z,1.15
2022-08-10T11:08:07.670Z,1.00
2022-08-10T11:10:52.702Z,1.08
2022-08-10T11:14:24.500Z,1.02
2022-08-10T11:16:38.643Z,0.80
2022-08-10T11:19:26.743Z,0.60
2022-08-10T11:22:30.090Z,0.73
2022-08-10T11:25:29.781Z,0.70
2022-08-10T11:28:21.058Z,0.90
2022-08-10T11:30:58.835Z,1.10
2022-08-10T11:34:36.081Z,0.85
2022-08-10T11:37:05.168Z,0.73
2022-08-10T11:39:51.313Z,0.80
2022-08-10T11:42:35.905Z,0.80
2022-08-10T11:45:08.202Z,0.90
2022-08-10T11:47:50.548Z,0.90
2022-08-10T11:50:28.325Z,0.70
2022-08-10T11:53:14.682Z,0.68
2022-08-10T11:55:49.231Z,0.60
2022-08-10T11:58:39.399Z,0.80
2022-08-10T12:01:10.804Z,0.68
2022-08-10T12:03:41.504Z,0.65
2022-08-10T12:06:13.694Z,0.80
2022-08-10T12:10:02.574Z,1.00
2022-08-10T12:11:31.265Z,0.60
2022-08-10T12:14:23.377Z,0.70
2022-08-10T12:17:23.938Z,0.70
2022-08-10T12:20:04.899Z,0.77
2022-08-10T12:22:56.683Z,0.70
2022-08-10T12:25:56.553Z,0.60
2022-08-10T12:28:49.852Z,0.50
2022-08-10T12:31:35.755Z,0.60
2022-08-10T12:34:16.214Z,0.70
2022-08-10T12:36:51.878Z,0.85
2022-08-10T12:39:25.369Z,0.60
2022-08-10T12:42:37.065Z,0.70
2022-08-10T12:45:15.949Z,0.85
2022-08-10T12:47:58.293Z,0.70
2022-08-10T12:50:43.737Z,0.60
2022-08-10T12:53:26.213Z,0.77
2022-08-10T12:55:54.751Z,0.50
2022-08-10T12:58:58.211Z,0.60
2022-08-10T13:01:16.458Z,0.77
2022-08-10T13:04:21.150Z,0.75
2022-08-10T13:06:46.337Z,0.70
2022-08-10T13:09:14.607Z,0.60
2022-08-10T13:12:36.062Z,0.95
2022-08-10T13:15:03.737Z,0.63
2022-08-10T13:17:54.038Z,0.70
2022-08-10T13:20:28.211Z,0.60
2022-08-10T13:23:01.412Z,0.90
2022-08-10T13:25:41.978Z,0.73
2022-08-10T13:28:37.235Z,0.73
2022-08-10T13:31:05.226Z,0.60
2022-08-10T13:34:39.192Z,0.73
2022-08-10T13:36:28.586Z,0.73
2022-08-10T13:38:57.595Z,0.73
2022-08-10T13:41:35.049Z,0.88
2022-08-10T13:44:02.450Z,0.80
2022-08-10T13:46:31.503Z,0.80
2022-08-10T13:49:00.494Z,0.70
2022-08-10T13:51:54.049Z,0.80
2022-08-10T13:54:22.049Z,0.70
2022-08-10T13:56:52.200Z,0.90
2022-08-10T13:59:21.503Z,0.68
2022-08-10T14:01:51.307Z,0.70
2022-08-10T14:04:20.158Z,0.68
2022-08-10T14:06:56.575Z,0.75
2022-08-10T14:09:29.799Z,0.90
2022-08-10T14:11:58.940Z,0.80
2022-08-10T14:14:29.371Z,0.60
2022-08-10T14:16:58.500Z,0.60
2022-08-10T14:19:31.641Z,0.65
2022-08-10T14:22:00.517Z,0.90
2022-08-10T14:24:30.489Z,0.80
2022-08-10T14:27:12.479Z,1.10
2022-08-10T14:29:43.584Z,0.90
2022-08-10T14:32:14.285Z,0.90
2022-08-10T14:36:14.992Z,0.80
2022-08-10T14:37:38.777Z,0.80
2022-08-10T14:40:15.688Z,0.80
2022-08-10T14:42:52.562Z,0.80
2022-08-10T14:45:24.022Z,0.80
2022-08-10T14:47:59.649Z,0.77
2022-08-10T14:50:32.770Z,0.70
2022-08-10T14:53:15.269Z,0.73
2022-08-10T14:55:58.911Z,0.90
2022-08-10T14:58:33.028Z,0.93
2022-08-10T15:01:02.605Z,0.80
2022-08-10T15:03:58.323Z,0.83
2022-08-10T15:06:30.585Z,0.70
2022-08-10T15:09:18.791Z,0.70
2022-08-10T15:12:14.224Z,0.60
2022-08-10T15:14:42.564Z,0.90
2022-08-10T15:17:13.635Z,0.97
2022-08-10T15:20:03.815Z,0.80
2022-08-10T15:22:38.382Z,1.10
2022-08-10T15:25:19.122Z,0.77
2022-08-10T15:28:06.367Z,0.70
2022-08-10T15:30:42.845Z,0.90
2022-08-10T15:34:00.276Z,0.80
2022-08-10T15:36:58.784Z,0.90
2022-08-10T15:40:24.333Z,1.07
2022-08-10T15:42:27.202Z,0.97
2022-08-10T15:44:55.054Z,0.90
2022-08-10T15:47:49.356Z,1.10
2022-08-10T15:50:24.605Z,0.77
2022-08-10T15:53:07.054Z,0.90
2022-08-10T15:55:54.715Z,1.00
2022-08-10T15:58:40.085Z,0.73
2022-08-10T16:02:12.741Z,0.70
2022-08-10T16:04:07.990Z,0.97
2022-08-10T16:06:44.156Z,0.83
2022-08-10T16:10:22.306Z,0.80
2022-08-10T16:12:13.575Z,0.80
2022-08-10T16:14:47.278Z,1.07
2022-08-10T16:17:16.843Z,0.80
2022-08-10T16:19:53.376Z,1.00
2022-08-10T16:22:36.084Z,0.67
2022-08-10T16:25:16.581Z,0.80
2022-08-10T16:27:45.275Z,0.93
2022-08-10T16:30:14.196Z,0.73
2022-08-10T16:32:42.653Z,0.90
2022-08-10T16:35:17.513Z,1.00
2022-08-10T16:37:57.155Z,0.90
2022-08-10T16:40:28.963Z,0.90
2022-08-10T16:42:59.901Z,0.80
2022-08-10T16:45:54.899Z,0.90
2022-08-10T16:48:49.589Z,0.90
2022-08-10T16:51:17.551Z,0.70
2022-08-10T16:53:47.549Z,1.00
2022-08-10T16:56:16.339Z,0.90
2022-08-10T16:58:46.809Z,1.00
2022-08-10T17:01:22.932Z,0.80
2022-08-10T17:04:06.658Z,0.70
2022-08-10T17:06:58.638Z,0.80
2022-08-10T17:09:32.079Z,0.80
2022-08-10T17:12:05.846Z,1.00
2022-08-10T17:14:33.310Z,1.00
2022-08-10T17:17:05.595Z,0.80
2022-08-10T17:19:40.702Z,1.10
2022-08-10T17:22:17.319Z,0.90
2022-08-10T17:25:08.134Z,0.90
2022-08-10T17:28:05.491Z,1.07
2022-08-10T17:30:34.071Z,1.20
2022-08-10T17:33:09.241Z,0.90
2022-08-10T17:35:39.566Z,1.00
2022-08-10T17:38:13.717Z,1.00
2022-08-10T17:40:50.990Z,1.20
2022-08-10T17:44:00.731Z,1.20
2022-08-10T17:46:13.119Z,1.03
2022-08-10T17:48:43.194Z,1.00
2022-08-10T17:51:15.879Z,0.90
2022-08-10T17:53:47.648Z,1.00
2022-08-10T17:56:17.021Z,1.33
2022-08-10T17:58:55.853Z,1.00
2022-08-10T18:01:40.586Z,0.90
2022-08-10T18:04:17.921Z,1.10
2022-08-10T18:06:51.932Z,0.90
2022-08-10T18:09:38.913Z,1.10
2022-08-10T18:12:19.106Z,1.50
2022-08-10T18:14:53.017Z,1.10
2022-08-10T18:17:24.732Z,1.50
2022-08-10T18:19:56.320Z,1.13
2022-08-10T18:22:24.840Z,1.30
2022-08-10T18:24:54.026Z,1.23
2022-08-10T18:27:22.434Z,1.30
2022-08-10T18:30:10.815Z,1.30
2022-08-10T18:32:41.094Z,1.47
2022-08-10T18:35:09.434Z,1.47
2022-08-10T18:37:38.627Z,1.60
2022-08-10T18:40:07.649Z,1.70
2022-08-10T18:42:44.420Z,1.30
2022-08-10T18:45:15.521Z,1.20
2022-08-10T18:48:01.650Z,1.17
2022-08-10T18:50:32.956Z,1.50
2022-08-10T18:53:04.481Z,1.60
2022-08-10T18:55:39.710Z,1.40
2022-08-10T18:58:40.516Z,2.00
2022-08-10T19:01:35.296Z,1.47
2022-08-10T19:04:15.913Z,1.83
2022-08-10T19:07:24.544Z,1.30
2022-08-10T19:10:21.416Z,1.60
2022-08-10T19:12:59.144Z,1.67
2022-08-10T19:15:57.615Z,1.10
2022-08-10T19:19:00.133Z,1.33
2022-08-10T19:21:32.915Z,1.47
2022-08-10T19:24:02.984Z,1.27
2022-08-10T19:27:01.066Z,1.83
2022-08-10T19:30:09.036Z,1.63
2022-08-10T19:32:45.300Z,1.83
2022-08-10T19:35:28.281Z,1.63
2022-08-10T19:38:16.667Z,1.80
2022-08-10T19:40:54.804Z,1.93
2022-08-10T19:44:01.187Z,1.80
2022-08-10T19:46:37.358Z,2.10
2022-08-10T19:49:43.522Z,1.57
2022-08-10T19:52:37.947Z,2.10
2022-08-10T19:55:28.086Z,1.80
2022-08-10T19:58:16.883Z,1.97
2022-08-10T20:00:58.136Z,1.67
2022-08-10T20:03:49.238Z,1.47
2022-08-10T20:06:22.707Z,2.27
2022-08-10T20:09:00.500Z,2.07
2022-08-10T20:12:04.344Z,1.93
2022-08-10T20:15:09.098Z,1.80
2022-08-10T20:18:00.685Z,1.90
2022-08-10T20:20:37.217Z,2.00
2022-08-10T20:23:18.682Z,2.37
2022-08-10T20:26:08.022Z,2.00
2022-08-10T20:28:43.581Z,1.90
2022-08-10T20:31:17.355Z,2.10
2022-08-10T20:34:09.647Z,2.37
2022-08-10T20:36:48.250Z,2.00
2022-08-10T20:39:40.486Z,2.20
2022-08-10T20:42:22.117Z,2.47
2022-08-10T20:45:05.837Z,2.00
2022-08-10T20:48:02.947Z,2.10
2022-08-10T20:50:48.227Z,2.30
2022-08-10T20:53:25.023Z,2.27
2022-08-10T20:56:21.543Z,2.30
2022-08-10T20:59:08.939Z,2.10
2022-08-10T21:02:06.820Z,2.53
2022-08-10T21:04:58.543Z,2.40
2022-08-10T21:08:01.181Z,2.00
2022-08-10T21:11:05.943Z,2.33
2022-08-10T21:14:11.280Z,2.10
2022-08-10T21:17:00.568Z,2.20
2022-08-10T21:19:41.582Z,2.20
2022-08-10T21:22:29.404Z,1.93
2022-08-10T21:25:07.119Z,2.23
2022-08-10T21:28:13.497Z,2.10
2022-08-10T21:31:15.662Z,2.20
2022-08-10T21:34:32.018Z,2.40
2022-08-10T21:37:20.013Z,2.90
2022-08-10T21:40:35.222Z,2.53
2022-08-10T21:43:44.712Z,2.00
2022-08-10T21:47:16.697Z,2.20
2022-08-10T21:50:22.977Z,2.70
2022-08-10T21:53:43.994Z,2.80
2022-08-10T21:56:51.651Z,2.50
2022-08-10T21:59:56.297Z,2.50
2022-08-10T22:02:50.116Z,2.57
2022-08-10T22:05:44.680Z,2.30
2022-08-10T22:08:36.202Z,2.70
2022-08-10T22:11:29.365Z,3.00
2022-08-10T22:14:27.231Z,3.10
2022-08-10T22:18:03.815Z,2.80
2022-08-10T22:20:49.584Z,3.10
2022-08-10T22:23:36.364Z,3.00
2022-08-10T22:26:44.781Z,2.80
2022-08-10T22:29:57.499Z,2.67
2022-08-10T22:33:04.317Z,2.60
2022-08-10T22:36:00.922Z,2.87
2022-08-10T22:39:02.315Z,2.63
2022-08-10T22:42:11.861Z,2.87
2022-08-10T22:45:01.797Z,3.30
2022-08-10T22:47:51.399Z,2.60
2022-08-10T22:50:28.079Z,3.20
2022-08-10T22:53:08.807Z,2.73
2022-08-10T22:55:59.729Z,4.00
2022-08-10T22:58:38.949Z,3.30
2022-08-10T23:01:36.358Z,3.20
2022-08-10T23:04:29.053Z,3.00
2022-08-10T23:07:08.555Z,3.17
2022-08-10T23:09:37.866Z,2.87
2022-08-10T23:12:16.136Z,3.23
2022-08-10T23:14:59.399Z,2.93
2022-08-10T23:18:01.073Z,3.00
2022-08-10T23:20:30.761Z,2.97
2022-08-10T23:23:07.456Z,2.87
2022-08-10T23:25:57.372Z,2.80
2022-08-10T23:28:55.407Z,3.60
2022-08-10T23:31:15.899Z,3.30
2022-08-10T23:33:47.477Z,3.50
2022-08-10T23:36:33.904Z,2.83
2022-08-10T23:39:24.495Z,3.50
2022-08-10T23:42:06.440Z,3.60
2022-08-10T23:44:55.951Z,3.33
2022-08-10T23:47:28.761Z,3.00
2022-08-10T23:49:58.310Z,3.17
2022-08-10T23:52:33.436Z,3.27
2022-08-10T23:55:07.740Z,3.53
2022-08-10T23:57:39.156Z,3.53
